createdAt,value
2023-02-17T00:02:16.795Z,31.31
2023-02-17T00:04:46.182Z,30.92
2023-02-17T00:07:14.061Z,31.16
2023-02-17T00:09:42.225Z,30.89
2023-02-17T00:12:10.130Z,31.41
2023-02-17T00:14:39.569Z,31.26
2023-02-17T00:17:07.547Z,31.10
2023-02-17T00:19:35.445Z,30.93
2023-02-17T00:22:04.688Z,30.91
2023-02-17T00:24:33.068Z,31.42
2023-02-17T00:27:01.101Z,31.23
2023-02-17T00:29:29.005Z,31.20
2023-02-17T00:31:57.118Z,31.08
2023-02-17T00:34:25.058Z,30.99
2023-02-17T00:36:53.016Z,31.13
2023-02-17T00:39:22.602Z,30.97
2023-02-17T00:41:50.554Z,30.92
2023-02-17T00:44:19.281Z,31.34
2023-02-17T00:46:47.287Z,30.99
2023-02-17T00:49:16.857Z,31.42
2023-02-17T00:51:44.753Z,31.37
2023-02-17T00:54:12.681Z,31.30
2023-02-17T00:56:41.918Z,31.29
2023-02-17T00:59:10.284Z,31.04
2023-02-17T01:01:38.640Z,31.17
2023-02-17T01:04:06.609Z,31.29
2023-02-17T01:06:35.246Z,31.19
2023-02-17T01:09:03.485Z,31.25
2023-02-17T01:11:32.269Z,31.13
2023-02-17T01:14:01.739Z,31.33
2023-02-17T01:16:30.829Z,31.09
2023-02-17T01:18:59.006Z,31.10
2023-02-17T01:21:28.889Z,31.28
2023-02-17T01:23:57.667Z,31.25
2023-02-17T01:26:26.283Z,31.11
2023-02-17T01:28:54.612Z,31.51
2023-02-17T01:31:24.122Z,31.04
2023-02-17T01:33:52.111Z,31.62
2023-02-17T01:36:20.153Z,31.09
2023-02-17T01:38:48.345Z,31.35
2023-02-17T01:41:16.864Z,31.53
2023-02-17T01:43:44.721Z,31.32
2023-02-17T01:46:12.669Z,31.44
2023-02-17T01:48:43.477Z,31.05
2023-02-17T01:51:12.288Z,31.53
2023-02-17T01:53:41.469Z,31.23
2023-02-17T01:56:09.373Z,31.05
2023-02-17T01:58:37.270Z,31.56
2023-02-17T02:01:05.251Z,31.09
2023-02-17T02:03:33.969Z,31.09
2023-02-17T02:06:03.537Z,31.45
2023-02-17T02:08:32.234Z,31.52
2023-02-17T02:11:00.097Z,31.40
2023-02-17T02:13:28.042Z,31.01
2023-02-17T02:15:58.567Z,31.18
2023-02-17T02:18:36.151Z,31.51
2023-02-17T02:21:46.129Z,31.63
2023-02-17T02:24:26.417Z,31.34
2023-02-17T02:27:30.890Z,31.51
2023-02-17T02:30:24.621Z,31.42
2023-02-17T02:32:58.639Z,31.70
2023-02-17T02:35:30.422Z,31.52
2023-02-17T02:38:01.016Z,31.19
2023-02-17T02:40:31.037Z,31.63
2023-02-17T02:42:59.679Z,31.61
2023-02-17T02:45:27.606Z,31.43
2023-02-17T02:47:58.032Z,31.60
2023-02-17T02:50:30.149Z,31.51
2023-02-17T02:53:04.198Z,31.46
2023-02-17T02:55:39.135Z,31.53
2023-02-17T02:58:08.253Z,31.36
2023-02-17T03:00:39.278Z,31.36
2023-02-17T03:03:10.051Z,31.36
2023-02-17T03:05:39.776Z,31.45
2023-02-17T03:08:09.921Z,31.62
2023-02-17T03:10:37.936Z,31.33
2023-02-17T03:13:05.908Z,31.81
2023-02-17T03:15:34.572Z,31.50
2023-02-17T03:18:03.009Z,31.52
2023-02-17T03:20:34.448Z,31.28
2023-02-17T03:23:02.297Z,31.27
2023-02-17T03:25:30.206Z,31.53
2023-02-17T03:27:58.427Z,31.61
2023-02-17T03:30:26.348Z,31.43
2023-02-17T03:32:54.218Z,31.37
2023-02-17T03:35:22.126Z,31.58
2023-02-17T03:37:51.699Z,31.31
2023-02-17T03:40:19.834Z,31.36
2023-02-17T03:42:47.749Z,31.46
2023-02-17T03:45:15.774Z,31.61
2023-02-17T03:47:43.906Z,31.72
2023-02-17T03:50:12.179Z,31.65
2023-02-17T03:52:40.092Z,31.65
2023-02-17T03:55:09.542Z,31.54
2023-02-17T03:57:37.740Z,31.74
2023-02-17T04:00:08.189Z,31.86
2023-02-17T04:02:36.087Z,31.65
2023-02-17T04:05:04.030Z,31.27
2023-02-17T04:07:32.264Z,31.65
2023-02-17T04:10:00.145Z,31.28
2023-02-17T04:12:29.447Z,31.82
2023-02-17T04:14:57.325Z,31.63
2023-02-17T04:17:25.470Z,31.79
2023-02-17T04:19:53.408Z,31.63
2023-02-17T04:22:21.310Z,31.47
2023-02-17T04:24:49.169Z,31.36
2023-02-17T04:27:17.206Z,31.66
2023-02-17T04:29:46.722Z,31.50
2023-02-17T04:32:14.627Z,31.57
2023-02-17T04:34:42.543Z,31.68
2023-02-17T04:37:10.403Z,31.62
2023-02-17T04:39:38.563Z,31.78
2023-02-17T04:42:06.919Z,31.83
2023-02-17T04:44:35.020Z,31.93
2023-02-17T04:47:04.301Z,31.84
2023-02-17T04:49:32.242Z,31.40
2023-02-17T04:52:00.133Z,31.58
2023-02-17T04:54:28.076Z,31.47
2023-02-17T04:56:56.014Z,31.75
2023-02-17T04:59:25.658Z,31.72
2023-02-17T05:01:53.652Z,31.56
2023-02-17T05:04:23.058Z,31.54
2023-02-17T05:06:50.950Z,31.60
2023-02-17T05:09:19.149Z,31.64
2023-02-17T05:11:47.075Z,31.68
2023-02-17T05:14:14.947Z,31.64
2023-02-17T05:16:42.883Z,31.91
2023-02-17T05:19:11.025Z,31.82
2023-02-17T05:21:40.255Z,31.70
2023-02-17T05:24:08.412Z,31.60
2023-02-17T05:26:36.678Z,31.75
2023-02-17T05:29:04.867Z,31.75
2023-02-17T05:31:33.065Z,31.63
2023-02-17T05:34:00.995Z,31.76
2023-02-17T05:36:29.004Z,31.81
2023-02-17T05:38:58.567Z,31.88
2023-02-17T05:41:26.467Z,31.52
2023-02-17T05:43:54.326Z,31.66
2023-02-17T05:46:23.079Z,32.06
2023-02-17T05:48:51.324Z,31.55
2023-02-17T05:51:19.165Z,31.82
2023-02-17T05:53:47.070Z,31.83
2023-02-17T05:56:16.423Z,31.76
2023-02-17T05:58:44.658Z,31.78
2023-02-17T06:01:12.872Z,31.81
2023-02-17T06:03:40.909Z,31.71
2023-02-17T06:06:09.011Z,31.58
2023-02-17T06:08:37.636Z,32.07
2023-02-17T06:11:05.951Z,31.74
2023-02-17T06:13:35.216Z,31.88
2023-02-17T06:16:03.226Z,32.12
2023-02-17T06:18:31.437Z,31.62
2023-02-17T06:20:59.493Z,31.82
2023-02-17T06:23:27.552Z,32.06
2023-02-17T06:25:55.465Z,31.69
2023-02-17T06:28:23.326Z,31.92
2023-02-17T06:30:52.941Z,31.88
2023-02-17T06:33:20.870Z,32.03
2023-02-17T06:35:52.098Z,31.79
2023-02-17T06:38:20.311Z,31.70
2023-02-17T06:40:48.255Z,31.80
2023-02-17T06:43:16.138Z,31.98
2023-02-17T06:45:44.108Z,32.16
2023-02-17T06:48:13.672Z,31.92
2023-02-17T06:50:41.545Z,31.94
2023-02-17T06:53:09.469Z,32.05
2023-02-17T06:55:39.003Z,31.68
2023-02-17T06:58:07.335Z,31.68
2023-02-17T07:00:35.328Z,31.74
2023-02-17T07:03:03.315Z,31.85
2023-02-17T07:05:32.633Z,31.61
2023-02-17T07:08:00.788Z,32.09
2023-02-17T07:10:28.680Z,31.90
2023-02-17T07:12:56.598Z,31.73
2023-02-17T07:15:24.540Z,32.10
2023-02-17T07:17:52.697Z,32.13
2023-02-17T07:20:20.832Z,31.95
2023-02-17T07:22:50.100Z,31.94
2023-02-17T07:25:18.013Z,31.76
2023-02-17T07:27:46.188Z,31.80
2023-02-17T07:30:14.906Z,31.64
2023-02-17T07:32:43.248Z,31.89
2023-02-17T07:35:11.377Z,31.86
2023-02-17T07:37:39.625Z,31.95
2023-02-17T07:40:09.697Z,31.96
2023-02-17T07:42:37.556Z,32.17
2023-02-17T07:45:08.604Z,31.86
2023-02-17T07:47:36.778Z,31.84
2023-02-17T07:50:04.686Z,31.70
2023-02-17T07:52:34.104Z,31.75
2023-02-17T07:55:02.074Z,31.95
2023-02-17T07:57:31.644Z,31.90
2023-02-17T07:59:59.561Z,32.13
2023-02-17T08:02:27.562Z,31.90
2023-02-17T08:04:55.428Z,31.81
2023-02-17T08:07:23.660Z,32.10
2023-02-17T08:10:08.725Z,32.12
2023-02-17T08:13:04.013Z,32.15
2023-02-17T08:15:34.243Z,32.25
2023-02-17T08:18:04.966Z,31.93
2023-02-17T08:20:34.963Z,31.92
2023-02-17T08:23:03.624Z,31.87
2023-02-17T08:25:33.148Z,31.79
2023-02-17T08:28:02.542Z,31.85
2023-02-17T08:30:30.684Z,31.68
2023-02-17T08:32:58.701Z,31.78
2023-02-17T08:35:26.576Z,31.92
2023-02-17T08:37:54.752Z,31.91
2023-02-17T08:40:22.720Z,31.91
2023-02-17T08:42:50.679Z,32.09
2023-02-17T08:45:20.141Z,32.23
2023-02-17T08:47:50.973Z,32.25
2023-02-17T08:50:20.145Z,31.72
2023-02-17T08:52:48.161Z,31.99
2023-02-17T08:55:18.459Z,32.00
2023-02-17T08:57:46.667Z,31.81
2023-02-17T09:00:15.736Z,32.15
2023-02-17T09:02:45.276Z,32.02
2023-02-17T09:05:13.743Z,32.34
2023-02-17T09:07:42.036Z,32.10
2023-02-17T09:10:10.632Z,32.09
2023-02-17T09:12:38.527Z,32.17
2023-02-17T09:15:09.809Z,31.88
2023-02-17T09:17:40.935Z,32.18
2023-02-17T09:20:23.839Z,32.00
2023-02-17T09:22:52.836Z,31.92
2023-02-17T09:25:20.835Z,31.97
2023-02-17T09:27:49.372Z,32.00
2023-02-17T09:30:17.360Z,32.03
2023-02-17T09:32:45.381Z,32.10
2023-02-17T09:35:14.974Z,32.13
2023-02-17T09:37:43.169Z,32.32
2023-02-17T09:40:17.014Z,32.09
2023-02-17T09:42:44.908Z,31.93
2023-02-17T09:45:15.415Z,31.98
2023-02-17T09:47:45.233Z,31.89
2023-02-17T09:50:16.624Z,32.20
2023-02-17T09:52:48.985Z,32.04
2023-02-17T09:55:18.083Z,32.28
2023-02-17T09:57:48.600Z,32.18
2023-02-17T10:00:17.980Z,32.35
2023-02-17T10:02:48.267Z,32.29
2023-02-17T10:05:19.732Z,32.05
2023-02-17T10:07:48.478Z,32.03
2023-02-17T10:10:19.263Z,32.46
2023-02-17T10:12:48.386Z,31.96
2023-02-17T10:15:19.406Z,31.94
2023-02-17T10:17:49.670Z,32.39
2023-02-17T10:20:20.910Z,32.47
2023-02-17T10:22:51.384Z,32.22
2023-02-17T10:25:20.311Z,32.12
2023-02-17T10:27:49.887Z,32.15
2023-02-17T10:30:25.498Z,32.40
2023-02-17T10:33:00.496Z,32.56
2023-02-17T10:35:45.428Z,32.09
2023-02-17T10:38:17.061Z,32.32
2023-02-17T10:40:46.568Z,32.24
2023-02-17T10:43:14.658Z,32.48
2023-02-17T10:45:45.084Z,32.21
2023-02-17T10:48:14.556Z,32.09
2023-02-17T10:50:44.315Z,32.13
2023-02-17T10:53:15.954Z,32.32
2023-02-17T10:55:49.150Z,32.35
2023-02-17T10:58:19.731Z,32.49
2023-02-17T11:00:47.719Z,32.42
2023-02-17T11:03:21.917Z,32.33
2023-02-17T11:05:56.340Z,32.65
2023-02-17T11:08:32.144Z,32.65
2023-02-17T11:11:01.876Z,32.67
2023-02-17T11:13:33.253Z,32.49
2023-02-17T11:16:01.194Z,32.33
2023-02-17T11:18:30.074Z,32.55
2023-02-17T11:21:04.805Z,32.45
2023-02-17T11:23:32.953Z,32.50
2023-02-17T11:26:10.221Z,32.39
2023-02-17T11:28:38.136Z,32.31
2023-02-17T11:31:07.269Z,32.73
2023-02-17T11:33:37.022Z,32.51
2023-02-17T11:36:07.558Z,32.26
2023-02-17T11:38:43.424Z,32.46
2023-02-17T11:41:11.295Z,32.82
2023-02-17T11:43:39.270Z,32.52
2023-02-17T11:46:15.945Z,32.37
2023-02-17T11:49:00.325Z,32.46
2023-02-17T11:51:33.717Z,32.41
2023-02-17T11:54:05.434Z,32.21
2023-02-17T11:56:35.534Z,32.29
2023-02-17T11:59:28.507Z,32.40
2023-02-17T12:02:05.413Z,32.83
2023-02-17T12:04:33.386Z,32.65
2023-02-17T12:07:14.009Z,32.82
2023-02-17T12:09:46.808Z,32.81
2023-02-17T12:12:17.264Z,32.88
2023-02-17T12:14:54.428Z,32.94
2023-02-17T12:17:25.423Z,32.80
2023-02-17T12:19:56.013Z,32.87
2023-02-17T12:22:27.656Z,33.04
2023-02-17T12:25:05.104Z,32.93
2023-02-17T12:27:39.933Z,32.87
2023-02-17T12:30:21.808Z,32.73
2023-02-17T12:33:01.658Z,32.98
2023-02-17T12:35:34.880Z,32.53
2023-02-17T12:38:10.078Z,32.52
2023-02-17T12:40:38.983Z,32.76
2023-02-17T12:43:09.811Z,32.56
2023-02-17T12:45:39.791Z,32.75
2023-02-17T12:48:11.237Z,32.80
2023-02-17T12:50:40.456Z,33.01
2023-02-17T12:53:12.977Z,33.05
2023-02-17T12:55:48.504Z,33.06
2023-02-17T12:58:17.889Z,33.05
2023-02-17T13:00:47.402Z,32.67
2023-02-17T13:03:15.337Z,33.25
2023-02-17T13:05:45.879Z,33.22
2023-02-17T13:08:17.523Z,32.97
2023-02-17T13:10:45.414Z,32.80
2023-02-17T13:13:15.266Z,32.80
2023-02-17T13:15:44.229Z,32.83
2023-02-17T13:18:15.903Z,32.85
2023-02-17T13:20:55.359Z,33.03
2023-02-17T13:23:38.565Z,32.79
2023-02-17T13:26:31.085Z,33.30
2023-02-17T13:29:10.954Z,33.35
2023-02-17T13:31:47.156Z,33.03
2023-02-17T13:34:28.403Z,33.09
2023-02-17T13:36:56.302Z,32.98
2023-02-17T13:39:46.914Z,33.34
2023-02-17T13:42:35.599Z,33.30
2023-02-17T13:45:04.932Z,32.88
2023-02-17T13:47:37.714Z,33.23
2023-02-17T13:50:07.320Z,33.01
2023-02-17T13:52:35.273Z,33.17
2023-02-17T13:55:05.637Z,33.07
2023-02-17T13:57:34.641Z,32.98
2023-02-17T14:00:17.928Z,33.12
2023-02-17T14:02:47.399Z,33.01
2023-02-17T14:05:19.951Z,32.99
2023-02-17T14:07:48.529Z,33.46
2023-02-17T14:10:20.469Z,33.10
2023-02-17T14:12:49.254Z,33.33
2023-02-17T14:15:17.944Z,33.18
2023-02-17T14:17:46.145Z,33.50
2023-02-17T14:20:31.401Z,33.41
2023-02-17T14:23:04.713Z,33.08
2023-02-17T14:25:35.464Z,33.47
2023-02-17T14:28:03.413Z,33.52
2023-02-17T14:30:32.700Z,33.33
2023-02-17T14:33:05.470Z,33.60
2023-02-17T14:35:35.217Z,33.28
2023-02-17T14:38:10.959Z,33.44
2023-02-17T14:40:40.392Z,33.09
2023-02-17T14:43:08.278Z,33.36
2023-02-17T14:45:36.183Z,33.23
2023-02-17T14:48:04.607Z,33.64
2023-02-17T14:50:33.101Z,33.16
2023-02-17T14:53:00.945Z,33.16
2023-02-17T14:55:33.712Z,33.60
2023-02-17T14:58:03.381Z,33.35
2023-02-17T15:00:31.407Z,33.58
2023-02-17T15:02:59.369Z,33.58
2023-02-17T15:05:27.626Z,33.44
2023-02-17T15:07:55.657Z,33.27
2023-02-17T15:10:26.361Z,33.46
2023-02-17T15:12:54.380Z,33.67
2023-02-17T15:15:23.776Z,33.35
2023-02-17T15:17:51.996Z,33.23
2023-02-17T15:20:19.924Z,33.59
2023-02-17T15:22:52.711Z,33.48
2023-02-17T15:25:22.257Z,33.27
2023-02-17T15:27:50.786Z,33.74
2023-02-17T15:30:19.284Z,33.56
2023-02-17T15:32:48.599Z,33.42
2023-02-17T15:35:18.008Z,33.38
2023-02-17T15:37:46.323Z,33.31
2023-02-17T15:40:15.635Z,33.62
2023-02-17T15:42:43.860Z,33.77
2023-02-17T15:45:13.549Z,33.44
2023-02-17T15:47:41.705Z,33.33
2023-02-17T15:50:20.383Z,33.54
2023-02-17T15:52:48.729Z,33.33
2023-02-17T15:55:16.980Z,33.52
2023-02-17T15:57:47.423Z,33.46
2023-02-17T16:00:22.851Z,33.45
2023-02-17T16:02:50.907Z,33.50
2023-02-17T16:05:21.543Z,33.42
2023-02-17T16:07:49.911Z,33.59
2023-02-17T16:10:18.874Z,33.19
2023-02-17T16:12:46.847Z,33.72
2023-02-17T16:15:15.689Z,33.54
2023-02-17T16:17:43.916Z,33.45
2023-02-17T16:20:16.633Z,33.44
2023-02-17T16:22:46.421Z,33.47
2023-02-17T16:25:14.751Z,33.23
2023-02-17T16:27:42.989Z,33.54
2023-02-17T16:30:18.147Z,33.59
2023-02-17T16:32:46.311Z,33.52
2023-02-17T16:35:15.654Z,33.63
2023-02-17T16:37:55.328Z,33.51
2023-02-17T16:40:24.241Z,33.65
2023-02-17T16:42:52.155Z,33.57
2023-02-17T16:45:21.307Z,33.58
2023-02-17T16:47:50.161Z,33.60
2023-02-17T16:50:19.908Z,33.87
2023-02-17T16:52:47.869Z,33.70
2023-02-17T16:55:18.280Z,33.45
2023-02-17T16:57:46.582Z,33.40
2023-02-17T17:00:16.427Z,33.67
2023-02-17T17:02:44.656Z,33.36
2023-02-17T17:05:12.940Z,33.49
2023-02-17T17:07:41.334Z,33.75
2023-02-17T17:10:17.358Z,33.76
2023-02-17T17:12:46.840Z,33.46
2023-02-17T17:15:16.291Z,33.74
2023-02-17T17:17:46.200Z,33.79
2023-02-17T17:20:15.685Z,33.38
2023-02-17T17:22:43.603Z,33.34
2023-02-17T17:25:11.474Z,33.65
2023-02-17T17:27:41.662Z,33.41
2023-02-17T17:30:17.305Z,33.62
2023-02-17T17:32:45.283Z,33.83
2023-02-17T17:35:13.183Z,33.36
2023-02-17T17:37:41.395Z,33.28
2023-02-17T17:40:15.628Z,33.82
2023-02-17T17:42:43.919Z,33.47
2023-02-17T17:45:12.172Z,33.92
2023-02-17T17:47:41.812Z,33.25
2023-02-17T17:50:13.436Z,33.43
2023-02-17T17:52:41.480Z,33.76
2023-02-17T17:55:09.588Z,33.95
2023-02-17T17:57:37.795Z,33.72
2023-02-17T18:00:08.771Z,33.66
2023-02-17T18:02:36.674Z,33.43
2023-02-17T18:05:06.292Z,33.43
2023-02-17T18:07:36.670Z,33.97
2023-02-17T18:10:06.534Z,33.89
2023-02-17T18:12:34.504Z,33.96
2023-02-17T18:15:04.169Z,33.87
2023-02-17T18:17:32.738Z,33.60
2023-02-17T18:20:00.799Z,33.73
2023-02-17T18:22:30.113Z,33.68
2023-02-17T18:24:57.997Z,33.85
2023-02-17T18:27:25.883Z,33.51
2023-02-17T18:29:55.803Z,33.98
2023-02-17T18:32:24.701Z,33.53
2023-02-17T18:34:53.433Z,33.52
2023-02-17T18:37:21.536Z,33.59
2023-02-17T18:39:50.824Z,33.94
2023-02-17T18:42:18.755Z,33.47
2023-02-17T18:44:46.637Z,33.59
2023-02-17T18:47:14.542Z,33.60
2023-02-17T18:49:42.761Z,33.86
2023-02-17T18:52:10.623Z,33.83
2023-02-17T18:54:42.250Z,33.79
2023-02-17T18:57:11.570Z,33.82
2023-02-17T18:59:39.801Z,33.75
2023-02-17T19:02:07.847Z,33.82
2023-02-17T19:04:35.779Z,34.02
2023-02-17T19:07:06.117Z,33.48
2023-02-17T19:09:34.150Z,33.93
2023-02-17T19:12:02.074Z,33.47
2023-02-17T19:14:33.152Z,34.01
2023-02-17T19:17:01.022Z,33.78
2023-02-17T19:19:31.469Z,33.58
2023-02-17T19:21:59.350Z,33.72
2023-02-17T19:24:27.303Z,33.75
2023-02-17T19:26:55.876Z,33.55
2023-02-17T19:29:24.052Z,33.95
2023-02-17T19:31:53.523Z,33.72
2023-02-17T19:34:21.543Z,33.49
2023-02-17T19:36:49.432Z,33.50
2023-02-17T19:39:17.638Z,33.49
2023-02-17T19:41:45.582Z,33.94
2023-02-17T19:44:13.530Z,33.79
2023-02-17T19:46:41.506Z,33.49
2023-02-17T19:49:11.165Z,33.75
2023-02-17T19:51:39.054Z,33.80
2023-02-17T19:54:07.029Z,33.69
2023-02-17T19:56:35.300Z,33.71
2023-02-17T19:59:03.532Z,33.93
2023-02-17T20:01:32.590Z,33.42
2023-02-17T20:04:01.508Z,34.13
2023-02-17T20:06:32.124Z,34.01
2023-02-17T20:09:01.565Z,34.00
2023-02-17T20:11:29.752Z,33.89
2023-02-17T20:13:58.014Z,33.62
2023-02-17T20:16:26.019Z,33.72
2023-02-17T20:18:55.181Z,33.67
2023-02-17T20:21:24.405Z,34.00
2023-02-17T20:23:53.669Z,33.81
2023-02-17T20:26:22.625Z,33.66
2023-02-17T20:28:51.354Z,34.01
2023-02-17T20:31:19.742Z,33.90
2023-02-17T20:33:48.164Z,33.48
2023-02-17T20:36:16.167Z,33.88
2023-02-17T20:38:44.963Z,34.10
2023-02-17T20:41:16.531Z,33.57
2023-02-17T20:43:44.432Z,33.82
2023-02-17T20:46:14.128Z,33.83
2023-02-17T20:48:42.379Z,33.69
2023-02-17T20:51:10.241Z,33.58
2023-02-17T20:53:38.173Z,33.82
2023-02-17T20:56:15.154Z,33.67
2023-02-17T20:58:43.129Z,33.65
2023-02-17T21:01:11.072Z,33.54
2023-02-17T21:03:39.138Z,33.85
2023-02-17T21:06:21.628Z,33.72
2023-02-17T21:08:51.137Z,34.11
2023-02-17T21:11:20.520Z,33.94
2023-02-17T21:13:48.894Z,34.01
2023-02-17T21:16:17.933Z,33.90
2023-02-17T21:18:47.097Z,34.16
2023-02-17T21:21:16.106Z,33.90
2023-02-17T21:23:44.013Z,33.61
2023-02-17T21:26:12.339Z,33.92
2023-02-17T21:28:41.980Z,33.85
2023-02-17T21:31:10.084Z,33.69
2023-02-17T21:33:41.883Z,34.04
2023-02-17T21:36:11.211Z,34.01
2023-02-17T21:38:39.517Z,34.13
2023-02-17T21:41:08.148Z,33.81
2023-02-17T21:43:53.454Z,33.82
2023-02-17T21:46:22.889Z,33.71
2023-02-17T21:48:53.105Z,34.09
2023-02-17T21:51:21.248Z,33.63
2023-02-17T21:53:49.220Z,34.01
2023-02-17T21:56:17.195Z,33.83
2023-02-17T21:58:47.119Z,33.96
2023-02-17T22:01:15.149Z,33.91
2023-02-17T22:03:44.556Z,34.19
2023-02-17T22:06:16.858Z,34.16
2023-02-17T22:08:45.433Z,34.04
2023-02-17T22:11:17.059Z,34.01
2023-02-17T22:13:45.052Z,33.93
2023-02-17T22:16:13.125Z,34.12
2023-02-17T22:18:41.340Z,34.22
2023-02-17T22:21:11.248Z,34.22
2023-02-17T22:23:39.189Z,33.75
2023-02-17T22:26:08.664Z,33.93
2023-02-17T22:28:37.048Z,34.14
2023-02-17T22:31:05.246Z,33.70
2023-02-17T22:33:33.175Z,33.65
2023-02-17T22:36:01.410Z,34.08
2023-02-17T22:38:30.982Z,33.97
2023-02-17T22:40:58.900Z,33.84
2023-02-17T22:43:26.852Z,33.98
2023-02-17T22:45:59.146Z,34.07
2023-02-17T22:48:27.389Z,34.13
2023-02-17T22:50:55.299Z,33.98
2023-02-17T22:53:23.173Z,34.02
2023-02-17T22:55:55.553Z,33.67
2023-02-17T22:58:24.092Z,33.79
2023-02-17T23:00:52.152Z,33.81
2023-02-17T23:03:20.081Z,34.21
2023-02-17T23:05:47.983Z,33.85
2023-02-17T23:08:15.868Z,33.75
2023-02-17T23:10:43.952Z,33.99
2023-02-17T23:13:13.261Z,34.19
2023-02-17T23:15:41.310Z,34.24
2023-02-17T23:18:09.643Z,34.12
2023-02-17T23:20:38.786Z,34.24
2023-02-17T23:23:06.721Z,34.02
2023-02-17T23:25:34.783Z,34.10
2023-02-17T23:28:03.639Z,34.24
2023-02-17T23:30:33.129Z,33.96
2023-02-17T23:33:01.081Z,33.93
2023-02-17T23:35:28.985Z,33.67
2023-02-17T23:37:57.180Z,33.73
2023-02-17T23:40:25.088Z,34.00
2023-02-17T23:42:53.194Z,34.10
2023-02-17T23:45:21.101Z,34.19
2023-02-17T23:47:50.461Z,34.24
2023-02-17T23:50:18.405Z,33.82
2023-02-17T23:52:46.274Z,34.26
2023-02-17T23:55:14.179Z,34.22
2023-02-17T23:57:42.370Z,33.94
